createdAt,value
2023-10-30T00:07:57.975Z,988.7
2023-10-30T00:23:18.779Z,988.6
2023-10-30T00:38:38.599Z,989
2023-10-30T00:53:59.401Z,988.9
2023-10-30T01:09:20.205Z,989.4
2023-10-30T01:24:41.008Z,989.6
2023-10-30T01:40:01.811Z,989.4
2023-10-30T01:55:22.615Z,989.6
2023-10-30T02:10:42.440Z,989.7
2023-10-30T02:26:03.243Z,989.3
2023-10-30T02:41:24.047Z,989.6
2023-10-30T02:56:44.851Z,989.5
2023-10-30T03:12:05.655Z,989.4
2023-10-30T03:27:26.459Z,989.4
2023-10-30T03:42:47.262Z,989.4
2023-10-30T03:58:08.067Z,989.7
2023-10-30T04:13:28.870Z,989.4
2023-10-30T04:28:49.673Z,989.6
2023-10-30T04:44:10.477Z,989.6
2023-10-30T04:59:31.280Z,989.4
2023-10-30T05:14:52.084Z,989.5
2023-10-30T05:30:11.904Z,989.4
2023-10-30T05:45:32.668Z,989.4
2023-10-30T06:00:53.427Z,989.7
2023-10-30T06:16:14.188Z,989.8
2023-10-30T06:31:34.948Z,990.2
2023-10-30T06:46:55.709Z,989.7
2023-10-30T07:02:16.469Z,989.8
2023-10-30T07:17:37.231Z,990.1
2023-10-30T07:32:57.994Z,990.5
2023-10-30T07:48:18.755Z,990.7
2023-10-30T08:03:39.517Z,991
2023-10-30T08:19:00.278Z,990.9
2023-10-30T08:34:21.040Z,990.8
2023-10-30T08:49:40.818Z,990.7
2023-10-30T09:05:01.577Z,990.5
2023-10-30T09:20:22.339Z,990.3
2023-10-30T09:35:43.099Z,990.6
2023-10-30T09:51:03.860Z,990.2
2023-10-30T10:06:24.622Z,989.9
2023-10-30T10:21:45.383Z,989.7
2023-10-30T10:37:06.144Z,989.6
2023-10-30T10:52:26.905Z,989.6
2023-10-30T11:07:47.664Z,989.6
2023-10-30T11:23:08.423Z,989.4
2023-10-30T11:38:29.183Z,989.3
2023-10-30T11:53:49.944Z,989.2
2023-10-30T12:09:09.720Z,989.1
2023-10-30T12:24:30.480Z,988.9
2023-10-30T12:39:51.239Z,988.9
2023-10-30T12:55:12.002Z,988.5
2023-10-30T13:10:32.761Z,988.2
2023-10-30T13:25:53.521Z,987.9
2023-10-30T13:41:14.280Z,987.7
2023-10-30T13:56:35.042Z,987.4
2023-10-30T14:11:55.802Z,987.4
2023-10-30T14:27:16.564Z,987.5
2023-10-30T14:42:37.324Z,987.3
2023-10-30T14:57:58.084Z,987.2
2023-10-30T15:13:18.844Z,987.1
2023-10-30T15:28:38.620Z,987
2023-10-30T15:43:59.381Z,986.8
2023-10-30T15:59:20.141Z,986.5
2023-10-30T16:14:40.945Z,986.3
2023-10-30T16:30:01.748Z,986.1
2023-10-30T16:45:22.558Z,985.8
2023-10-30T17:00:43.361Z,985.4
2023-10-30T17:16:04.164Z,985.6
2023-10-30T17:31:24.969Z,985.2
2023-10-30T17:46:45.773Z,985
2023-10-30T18:02:06.580Z,984.7
2023-10-30T18:17:27.388Z,984.3
2023-10-30T18:32:48.178Z,984.2
2023-10-30T18:48:08.012Z,984.1
2023-10-30T19:03:28.818Z,983.8
2023-10-30T19:18:49.622Z,983.5
2023-10-30T19:34:10.426Z,983.5
2023-10-30T19:49:31.231Z,983.1
2023-10-30T20:04:52.035Z,983
2023-10-30T20:20:12.833Z,983.1
2023-10-30T20:35:33.645Z,983.4
2023-10-30T20:50:54.449Z,983.2
2023-10-30T21:06:15.244Z,982.2
2023-10-30T21:21:36.058Z,981.5
2023-10-30T21:36:56.862Z,981.8
2023-10-30T21:52:17.667Z,981.9
2023-10-30T22:07:37.487Z,981.8
2023-10-30T22:22:58.292Z,981.6
2023-10-30T22:38:19.096Z,981.3
2023-10-30T22:53:39.900Z,981.6
2023-10-30T23:09:00.705Z,981.3
2023-10-30T23:24:21.510Z,980.9
2023-10-30T23:39:42.314Z,981.2
2023-10-30T23:55:03.109Z,981.4
